createdAt,value
2019-05-22T00:02:21.789Z,84.10
2019-05-22T00:04:58.148Z,84.00
2019-05-22T00:07:33.208Z,83.80
2019-05-22T00:10:09.120Z,84.10
2019-05-22T00:12:47.049Z,84.20
2019-05-22T00:15:22.175Z,84.20
2019-05-22T00:17:57.601Z,84.20
2019-05-22T00:20:31.679Z,84.20
2019-05-22T00:23:11.135Z,84.00
2019-05-22T00:25:47.076Z,83.80
2019-05-22T00:28:22.412Z,83.60
2019-05-22T00:30:57.486Z,83.70
2019-05-22T00:33:31.351Z,84.00
2019-05-22T00:36:06.788Z,84.10
2019-05-22T00:38:41.315Z,83.90
2019-05-22T00:41:17.928Z,83.80
2019-05-22T00:43:51.637Z,83.90
2019-05-22T00:46:25.685Z,84.10
2019-05-22T00:48:59.683Z,84.40
2019-05-22T00:51:36.533Z,84.40
2019-05-22T00:54:30.096Z,84.90
2019-05-22T00:57:05.640Z,84.20
2019-05-22T00:59:40.706Z,84.30
2019-05-22T01:02:18.963Z,84.30
2019-05-22T01:04:52.652Z,84.10
2019-05-22T01:07:30.940Z,83.90
2019-05-22T01:10:07.075Z,83.90
2019-05-22T01:12:42.949Z,84.20
2019-05-22T01:15:21.212Z,84.30
2019-05-22T01:17:56.699Z,84.20
2019-05-22T01:20:32.529Z,83.80
2019-05-22T01:23:07.604Z,83.70
2019-05-22T01:25:42.963Z,83.80
2019-05-22T01:28:16.986Z,83.70
2019-05-22T01:30:55.391Z,83.60
2019-05-22T01:33:38.363Z,83.60
2019-05-22T01:36:16.988Z,83.60
2019-05-22T01:38:52.759Z,83.80
2019-05-22T01:41:30.573Z,83.80
2019-05-22T01:44:06.620Z,83.40
2019-05-22T01:46:43.588Z,83.30
2019-05-22T01:49:18.532Z,83.40
2019-05-22T01:51:53.143Z,83.50
2019-05-22T01:54:27.905Z,83.40
2019-05-22T01:57:07.050Z,83.00
2019-05-22T01:59:42.185Z,83.20
2019-05-22T02:02:16.367Z,83.20
2019-05-22T02:04:49.833Z,83.30
2019-05-22T02:07:24.305Z,83.40
2019-05-22T02:09:59.374Z,83.20
2019-05-22T02:12:38.776Z,82.90
2019-05-22T02:15:13.630Z,83.00
2019-05-22T02:17:48.400Z,82.90
2019-05-22T02:20:22.461Z,83.20
2019-05-22T02:22:57.763Z,83.80
2019-05-22T02:25:32.386Z,83.10
2019-05-22T02:28:06.273Z,83.10
2019-05-22T02:30:42.369Z,83.10
2019-05-22T02:33:18.997Z,83.30
2019-05-22T02:35:54.053Z,83.30
2019-05-22T02:38:29.154Z,83.40
2019-05-22T02:41:04.365Z,83.30
2019-05-22T02:43:38.288Z,83.50
2019-05-22T02:46:14.052Z,83.30
2019-05-22T02:48:49.175Z,83.10
2019-05-22T02:51:23.055Z,83.20
2019-05-22T02:53:59.488Z,83.20
2019-05-22T02:56:54.245Z,82.90
2019-05-22T02:59:27.668Z,82.80
2019-05-22T03:02:04.108Z,82.60
2019-05-22T03:04:58.450Z,82.90
2019-05-22T03:07:32.997Z,83.00
2019-05-22T03:10:09.148Z,82.70
2019-05-22T03:12:45.464Z,82.90
2019-05-22T03:15:23.285Z,82.60
2019-05-22T03:17:59.312Z,82.50
2019-05-22T03:20:33.867Z,82.30
2019-05-22T03:23:19.286Z,82.30
2019-05-22T03:25:53.088Z,82.20
2019-05-22T03:28:27.052Z,82.20
2019-05-22T03:31:00.520Z,82.30
2019-05-22T03:33:34.757Z,82.40
2019-05-22T03:36:11.104Z,82.40
2019-05-22T03:38:46.868Z,83.00
2019-05-22T03:41:22.864Z,82.40
2019-05-22T03:43:58.387Z,82.40
2019-05-22T03:46:36.092Z,82.50
2019-05-22T03:49:28.285Z,82.30
2019-05-22T03:51:49.309Z,82.50
2019-05-22T03:54:22.901Z,82.50
2019-05-22T03:56:56.334Z,82.40
2019-05-22T03:59:30.168Z,82.50
2019-05-22T04:02:04.010Z,82.40
2019-05-22T04:04:40.372Z,82.50
2019-05-22T04:07:15.461Z,82.50
2019-05-22T04:09:52.799Z,82.40
2019-05-22T04:12:27.265Z,82.40
2019-05-22T04:15:01.800Z,82.70
2019-05-22T04:17:36.045Z,82.90
2019-05-22T04:20:11.745Z,83.10
2019-05-22T04:22:45.453Z,82.70
2019-05-22T04:25:18.955Z,82.40
2019-05-22T04:27:52.650Z,82.40
2019-05-22T04:30:27.396Z,82.60
2019-05-22T04:33:01.660Z,82.90
2019-05-22T04:35:35.653Z,82.60
2019-05-22T04:38:09.158Z,82.60
2019-05-22T04:40:47.390Z,82.70
2019-05-22T04:43:24.032Z,82.30
2019-05-22T04:46:00.786Z,82.40
2019-05-22T04:48:36.555Z,82.30
2019-05-22T04:51:28.584Z,82.30
2019-05-22T04:54:02.007Z,82.30
2019-05-22T04:56:35.783Z,82.10
2019-05-22T04:59:09.677Z,82.20
2019-05-22T05:01:43.137Z,82.10
2019-05-22T05:04:17.384Z,81.90
2019-05-22T05:06:51.382Z,81.90
2019-05-22T05:09:24.783Z,82.00
2019-05-22T05:11:59.191Z,82.00
2019-05-22T05:14:33.084Z,82.00
2019-05-22T05:17:08.192Z,81.70
2019-05-22T05:19:42.059Z,81.80
2019-05-22T05:22:18.757Z,81.80
2019-05-22T05:24:55.686Z,82.00
2019-05-22T05:27:29.013Z,81.90
2019-05-22T05:30:02.431Z,82.00
2019-05-22T05:32:36.913Z,82.00
2019-05-22T05:35:10.850Z,81.90
2019-05-22T05:37:44.352Z,82.00
2019-05-22T05:40:27.447Z,82.00
2019-05-22T05:43:02.033Z,82.00
2019-05-22T05:45:38.593Z,82.00
2019-05-22T05:48:14.028Z,81.90
2019-05-22T05:51:06.467Z,81.90
2019-05-22T05:53:58.844Z,82.00
2019-05-22T05:56:33.995Z,81.90
2019-05-22T05:59:08.473Z,81.80
2019-05-22T06:01:47.816Z,81.70
2019-05-22T06:04:34.142Z,81.80
2019-05-22T06:07:18.540Z,81.80
2019-05-22T06:09:55.054Z,81.70
2019-05-22T06:12:28.542Z,82.30
2019-05-22T06:15:03.620Z,81.70
2019-05-22T06:18:10.303Z,81.80
2019-05-22T06:20:43.734Z,81.80
2019-05-22T06:23:29.600Z,81.60
2019-05-22T06:26:04.927Z,81.60
2019-05-22T06:28:40.413Z,81.60
2019-05-22T06:31:23.196Z,81.60
2019-05-22T06:33:58.348Z,82.30
2019-05-22T06:36:53.196Z,81.70
2019-05-22T06:39:26.700Z,81.60
2019-05-22T06:42:00.668Z,81.60
2019-05-22T06:44:36.110Z,81.70
2019-05-22T06:47:11.608Z,81.60
2019-05-22T06:49:46.149Z,81.30
2019-05-22T06:52:20.342Z,81.40
2019-05-22T06:54:55.120Z,81.20
2019-05-22T06:57:29.678Z,81.10
2019-05-22T07:00:13.849Z,81.20
2019-05-22T07:02:42.182Z,81.00
2019-05-22T07:05:17.224Z,81.00
2019-05-22T07:07:50.782Z,81.10
2019-05-22T07:10:25.100Z,80.50
2019-05-22T07:13:00.729Z,80.50
2019-05-22T07:15:36.370Z,80.30
2019-05-22T07:18:13.470Z,80.20
2019-05-22T07:20:48.376Z,80.20
2019-05-22T07:23:24.859Z,80.10
2019-05-22T07:25:59.237Z,79.90
2019-05-22T07:28:33.441Z,80.20
2019-05-22T07:31:07.080Z,80.10
2019-05-22T07:33:40.764Z,79.80
2019-05-22T07:36:17.051Z,79.60
2019-05-22T07:38:50.360Z,79.30
2019-05-22T07:41:23.940Z,80.30
2019-05-22T07:43:57.935Z,79.80
2019-05-22T07:46:31.742Z,80.10
2019-05-22T07:49:05.705Z,79.70
2019-05-22T07:51:51.904Z,79.90
2019-05-22T07:54:15.660Z,80.20
2019-05-22T07:56:49.293Z,80.50
2019-05-22T07:59:23.751Z,80.70
2019-05-22T08:01:58.524Z,80.60
2019-05-22T08:04:31.954Z,80.80
2019-05-22T08:07:07.483Z,81.20
2019-05-22T08:09:41.490Z,81.30
2019-05-22T08:12:16.644Z,81.60
2019-05-22T08:14:50.817Z,81.60
2019-05-22T08:17:26.020Z,81.30
2019-05-22T08:19:59.576Z,81.10
2019-05-22T08:22:33.485Z,81.00
2019-05-22T08:25:08.340Z,81.40
2019-05-22T08:27:42.820Z,81.30
2019-05-22T08:30:17.377Z,81.20
2019-05-22T08:32:52.856Z,81.60
2019-05-22T08:35:26.425Z,81.20
2019-05-22T08:38:00.664Z,81.60
2019-05-22T08:40:34.529Z,81.80
2019-05-22T08:43:08.148Z,81.10
2019-05-22T08:45:42.106Z,80.80
2019-05-22T08:48:16.871Z,80.80
2019-05-22T08:50:51.725Z,80.60
2019-05-22T08:53:25.778Z,79.80
2019-05-22T08:55:59.744Z,80.00
2019-05-22T08:58:34.884Z,80.20
2019-05-22T09:01:10.718Z,80.00
2019-05-22T09:03:46.616Z,80.10
2019-05-22T09:06:20.422Z,79.60
2019-05-22T09:08:53.860Z,79.10
2019-05-22T09:11:27.535Z,78.80
2019-05-22T09:14:01.162Z,78.60
2019-05-22T09:16:34.853Z,78.40
2019-05-22T09:19:08.724Z,78.00
2019-05-22T09:21:42.939Z,77.50
2019-05-22T09:24:17.475Z,77.50
2019-05-22T09:26:51.333Z,77.30
2019-05-22T09:29:24.760Z,76.60
2019-05-22T09:31:58.249Z,76.30
2019-05-22T09:34:32.444Z,75.90
2019-05-22T09:37:07.024Z,75.70
2019-05-22T09:39:41.202Z,75.30
2019-05-22T09:42:15.777Z,74.90
2019-05-22T09:44:49.259Z,74.40
2019-05-22T09:47:25.064Z,74.00
2019-05-22T09:49:58.940Z,73.50
2019-05-22T09:52:33.200Z,72.80
2019-05-22T09:55:07.639Z,72.70
2019-05-22T09:57:41.135Z,71.70
2019-05-22T10:00:17.036Z,71.40
2019-05-22T10:02:51.000Z,70.60
2019-05-22T10:05:25.168Z,70.60
2019-05-22T10:08:01.866Z,70.30
2019-05-22T10:10:36.365Z,70.60
2019-05-22T10:13:10.693Z,71.00
2019-05-22T10:15:44.896Z,71.00
2019-05-22T10:18:18.701Z,70.80
2019-05-22T10:20:52.137Z,70.60
2019-05-22T10:23:25.975Z,70.20
2019-05-22T10:26:00.482Z,70.10
2019-05-22T10:28:35.320Z,70.00
2019-05-22T10:31:10.529Z,69.70
2019-05-22T10:33:44.874Z,69.30
2019-05-22T10:36:18.584Z,69.10
2019-05-22T10:38:52.001Z,68.90
2019-05-22T10:41:25.812Z,68.80
2019-05-22T10:43:59.647Z,68.60
2019-05-22T10:46:33.224Z,68.20
2019-05-22T10:49:06.931Z,67.40
2019-05-22T10:51:40.418Z,67.80
2019-05-22T10:54:14.730Z,67.70
2019-05-22T10:56:48.739Z,67.60
2019-05-22T10:59:22.849Z,67.40
2019-05-22T11:01:56.272Z,67.20
2019-05-22T11:04:30.981Z,66.70
2019-05-22T11:07:06.762Z,66.20
2019-05-22T11:09:40.391Z,67.00
2019-05-22T11:12:14.158Z,66.80
2019-05-22T11:14:47.851Z,66.70
2019-05-22T11:17:21.418Z,66.80
2019-05-22T11:19:54.859Z,66.90
2019-05-22T11:22:28.271Z,66.80
2019-05-22T11:25:01.717Z,66.60
2019-05-22T11:27:35.124Z,66.70
2019-05-22T11:30:11.504Z,66.70
2019-05-22T11:32:46.072Z,66.90
2019-05-22T11:35:20.543Z,66.80
2019-05-22T11:37:54.035Z,66.40
2019-05-22T11:40:28.037Z,66.50
2019-05-22T11:43:01.630Z,66.30
2019-05-22T11:45:35.470Z,65.70
2019-05-22T11:48:09.465Z,65.50
2019-05-22T11:50:44.056Z,64.80
2019-05-22T11:53:18.488Z,65.00
2019-05-22T11:55:53.726Z,64.70
2019-05-22T11:58:27.223Z,63.50
2019-05-22T12:01:00.976Z,62.70
2019-05-22T12:03:36.028Z,62.50
2019-05-22T12:06:10.201Z,61.70
2019-05-22T12:08:45.464Z,61.60
2019-05-22T12:11:20.834Z,61.50
2019-05-22T12:13:54.955Z,61.50
2019-05-22T12:16:28.660Z,61.30
2019-05-22T12:19:02.265Z,61.00
2019-05-22T12:21:36.485Z,61.60
2019-05-22T12:24:25.985Z,61.70
2019-05-22T12:26:45.608Z,61.70
2019-05-22T12:29:19.674Z,61.10
2019-05-22T12:31:53.096Z,61.00
2019-05-22T12:34:26.984Z,62.20
2019-05-22T12:37:00.856Z,61.80
2019-05-22T12:39:34.453Z,61.90
2019-05-22T12:42:08.934Z,61.40
2019-05-22T12:44:42.576Z,61.70
2019-05-22T12:47:16.364Z,60.80
2019-05-22T12:49:51.229Z,61.00
2019-05-22T12:52:25.510Z,61.30
2019-05-22T12:55:00.318Z,61.60
2019-05-22T12:57:35.159Z,62.10
2019-05-22T13:00:10.092Z,62.30
2019-05-22T13:02:44.473Z,62.30
2019-05-22T13:05:18.443Z,62.40
2019-05-22T13:07:52.329Z,62.80
2019-05-22T13:10:28.064Z,62.60
2019-05-22T13:13:01.726Z,62.60
2019-05-22T13:15:37.510Z,62.60
2019-05-22T13:18:14.673Z,62.20
2019-05-22T13:20:50.807Z,61.70
2019-05-22T13:23:26.638Z,61.80
2019-05-22T13:26:01.633Z,61.50
2019-05-22T13:28:37.180Z,61.40
2019-05-22T13:31:11.629Z,61.00
2019-05-22T13:33:45.216Z,60.10
2019-05-22T13:36:18.920Z,60.20
2019-05-22T13:38:52.577Z,60.20
2019-05-22T13:41:26.956Z,60.20
2019-05-22T13:44:01.140Z,59.90
2019-05-22T13:46:35.344Z,59.60
2019-05-22T13:49:08.792Z,59.60
2019-05-22T13:51:42.561Z,59.10
2019-05-22T13:54:16.808Z,58.90
2019-05-22T13:56:50.229Z,58.80
2019-05-22T13:59:24.909Z,58.50
2019-05-22T14:01:58.313Z,58.30
2019-05-22T14:04:32.139Z,58.40
2019-05-22T14:07:06.616Z,58.70
2019-05-22T14:09:40.880Z,58.70
2019-05-22T14:12:14.470Z,59.10
2019-05-22T14:14:48.069Z,59.30
2019-05-22T14:17:21.508Z,59.30
2019-05-22T14:19:55.420Z,59.20
2019-05-22T14:22:28.926Z,59.40
2019-05-22T14:25:02.431Z,59.40
2019-05-22T14:27:41.075Z,59.60
2019-05-22T14:30:13.188Z,59.80
2019-05-22T14:32:46.909Z,59.50
2019-05-22T14:35:23.660Z,59.70
2019-05-22T14:37:57.315Z,60.50
2019-05-22T14:40:32.684Z,60.20
2019-05-22T14:43:06.548Z,60.20
2019-05-22T14:45:40.202Z,60.20
2019-05-22T14:48:15.041Z,60.40
2019-05-22T14:50:49.204Z,60.40
2019-05-22T14:53:22.624Z,60.00
2019-05-22T14:55:56.888Z,60.10
2019-05-22T14:58:31.243Z,60.40
2019-05-22T15:01:06.999Z,59.70
2019-05-22T15:03:40.587Z,60.10
2019-05-22T15:06:16.232Z,60.10
2019-05-22T15:08:50.141Z,60.40
2019-05-22T15:11:24.476Z,59.60
2019-05-22T15:13:58.462Z,59.60
2019-05-22T15:16:32.897Z,59.60
2019-05-22T15:19:06.830Z,59.90
2019-05-22T15:21:41.287Z,60.00
2019-05-22T15:24:15.253Z,59.90
2019-05-22T15:26:49.317Z,60.00
2019-05-22T15:29:22.816Z,60.00
2019-05-22T15:31:56.304Z,60.20
2019-05-22T15:34:30.403Z,60.20
2019-05-22T15:37:04.833Z,60.00
2019-05-22T15:39:39.048Z,59.90
2019-05-22T15:42:15.679Z,59.80
2019-05-22T15:44:49.271Z,59.70
2019-05-22T15:47:23.528Z,59.80
2019-05-22T15:49:57.423Z,59.80
2019-05-22T15:52:31.636Z,60.00
2019-05-22T15:55:07.407Z,60.20
2019-05-22T15:57:43.441Z,60.60
2019-05-22T16:00:21.483Z,60.60
2019-05-22T16:02:56.532Z,60.40
2019-05-22T16:05:31.348Z,60.20
2019-05-22T16:08:07.049Z,60.00
2019-05-22T16:10:43.390Z,60.20
2019-05-22T16:13:20.740Z,61.00
2019-05-22T16:15:57.076Z,60.60
2019-05-22T16:18:33.073Z,60.60
2019-05-22T16:21:10.415Z,60.80
2019-05-22T16:23:44.626Z,60.80
2019-05-22T16:26:18.636Z,60.90
2019-05-22T16:28:52.441Z,60.90
2019-05-22T16:31:26.951Z,60.70
2019-05-22T16:34:01.774Z,59.90
2019-05-22T16:36:35.760Z,59.40
2019-05-22T16:39:11.175Z,59.20
2019-05-22T16:41:44.683Z,59.10
2019-05-22T16:44:18.972Z,58.90
2019-05-22T16:46:53.440Z,58.60
2019-05-22T16:49:28.568Z,58.50
2019-05-22T16:52:05.083Z,58.30
2019-05-22T16:54:41.009Z,57.80
2019-05-22T16:57:15.351Z,58.10
2019-05-22T16:59:49.184Z,58.40
2019-05-22T17:02:24.923Z,58.40
2019-05-22T17:05:01.797Z,58.50
2019-05-22T17:07:34.616Z,58.30
2019-05-22T17:10:11.240Z,58.20
2019-05-22T17:12:46.461Z,58.10
2019-05-22T17:15:21.209Z,57.90
2019-05-22T17:17:55.140Z,58.00
2019-05-22T17:20:30.675Z,57.90
2019-05-22T17:23:05.810Z,57.80
2019-05-22T17:25:41.066Z,57.90
2019-05-22T17:28:17.192Z,58.10
2019-05-22T17:31:11.612Z,58.20
2019-05-22T17:33:45.332Z,58.00
2019-05-22T17:36:19.597Z,57.80
2019-05-22T17:38:56.105Z,57.70
2019-05-22T17:41:30.528Z,57.60
2019-05-22T17:44:04.438Z,57.30
2019-05-22T17:46:39.903Z,57.20
2019-05-22T17:49:13.944Z,57.10
2019-05-22T17:51:47.422Z,56.90
2019-05-22T17:54:21.776Z,57.10
2019-05-22T17:56:56.060Z,57.10
2019-05-22T17:59:29.954Z,57.10
2019-05-22T18:02:06.056Z,57.20
2019-05-22T18:04:39.471Z,57.40
2019-05-22T18:07:13.451Z,58.20
2019-05-22T18:09:46.944Z,57.80
2019-05-22T18:12:21.888Z,58.00
2019-05-22T18:14:56.143Z,58.20
2019-05-22T18:17:29.581Z,58.60
2019-05-22T18:20:04.267Z,58.60
2019-05-22T18:22:38.467Z,59.20
2019-05-22T18:25:14.504Z,58.70
2019-05-22T18:27:50.412Z,58.70
2019-05-22T18:30:26.057Z,58.70
2019-05-22T18:32:59.499Z,58.50
2019-05-22T18:35:32.969Z,58.40
2019-05-22T18:38:06.580Z,58.20
2019-05-22T18:40:40.187Z,58.30
2019-05-22T18:43:13.793Z,58.20
2019-05-22T18:45:47.681Z,58.40
2019-05-22T18:48:21.585Z,58.40
2019-05-22T18:50:55.739Z,58.40
2019-05-22T18:53:29.343Z,58.30
2019-05-22T18:56:02.938Z,58.20
2019-05-22T18:58:37.132Z,58.10
2019-05-22T19:01:10.620Z,58.00
2019-05-22T19:03:44.134Z,58.00
2019-05-22T19:06:29.788Z,57.90
2019-05-22T19:08:53.725Z,58.10
2019-05-22T19:11:27.150Z,58.00
2019-05-22T19:14:00.644Z,57.90
2019-05-22T19:16:34.243Z,57.80
2019-05-22T19:19:08.117Z,57.60
2019-05-22T19:21:41.591Z,57.50
2019-05-22T19:24:15.024Z,57.50
2019-05-22T19:26:48.728Z,57.40
2019-05-22T19:29:22.215Z,57.20
2019-05-22T19:31:57.354Z,57.10
2019-05-22T19:34:30.945Z,57.10
2019-05-22T19:37:04.368Z,57.00
2019-05-22T19:39:38.174Z,57.50
2019-05-22T19:42:11.862Z,56.90
2019-05-22T19:44:45.964Z,57.00
2019-05-22T19:47:21.700Z,57.10
2019-05-22T19:49:55.344Z,57.20
2019-05-22T19:52:41.001Z,57.40
2019-05-22T19:55:07.321Z,57.60
2019-05-22T19:57:42.604Z,58.00
2019-05-22T20:00:17.779Z,58.30
2019-05-22T20:02:51.351Z,58.60
2019-05-22T20:05:25.565Z,58.70
2019-05-22T20:07:59.807Z,58.80
2019-05-22T20:10:33.409Z,58.90
2019-05-22T20:13:07.938Z,59.10
2019-05-22T20:15:42.398Z,59.20
2019-05-22T20:18:16.048Z,59.40
2019-05-22T20:20:49.926Z,59.60
2019-05-22T20:23:35.328Z,59.80
2019-05-22T20:25:58.508Z,60.00
2019-05-22T20:28:31.936Z,60.10
2019-05-22T20:31:05.826Z,60.30
2019-05-22T20:33:39.421Z,60.40
2019-05-22T20:36:13.389Z,60.70
2019-05-22T20:38:47.289Z,60.90
2019-05-22T20:41:22.116Z,60.80
2019-05-22T20:43:56.569Z,60.90
2019-05-22T20:46:30.877Z,61.00
2019-05-22T20:49:06.308Z,61.50
2019-05-22T20:51:41.153Z,61.70
2019-05-22T20:54:15.044Z,62.00
2019-05-22T20:56:50.287Z,62.30
2019-05-22T20:59:24.437Z,62.50
2019-05-22T21:01:59.472Z,62.60
2019-05-22T21:04:33.356Z,62.80
2019-05-22T21:07:08.975Z,62.90
2019-05-22T21:09:44.336Z,63.00
2019-05-22T21:12:19.191Z,63.20
2019-05-22T21:14:53.046Z,63.50
2019-05-22T21:17:28.620Z,63.60
2019-05-22T21:20:03.009Z,63.90
2019-05-22T21:22:36.708Z,64.10
2019-05-22T21:25:12.048Z,64.20
2019-05-22T21:27:45.920Z,64.40
2019-05-22T21:30:22.047Z,64.50
2019-05-22T21:32:55.657Z,64.70
2019-05-22T21:35:29.826Z,64.90
2019-05-22T21:38:05.268Z,65.30
2019-05-22T21:40:39.840Z,65.70
2019-05-22T21:43:15.583Z,66.00
2019-05-22T21:45:50.339Z,66.20
2019-05-22T21:48:24.885Z,66.50
2019-05-22T21:50:58.780Z,66.70
2019-05-22T21:53:32.387Z,67.00
2019-05-22T21:56:06.470Z,67.30
2019-05-22T21:58:41.166Z,67.40
2019-05-22T22:01:23.757Z,67.60
2019-05-22T22:04:09.783Z,67.80
2019-05-22T22:06:43.744Z,68.00
2019-05-22T22:09:17.362Z,67.90
2019-05-22T22:11:51.256Z,68.00
2019-05-22T22:14:24.864Z,68.20
2019-05-22T22:17:00.027Z,68.60
2019-05-22T22:19:34.182Z,68.70
2019-05-22T22:22:10.906Z,68.70
2019-05-22T22:24:44.792Z,68.90
2019-05-22T22:27:18.701Z,69.20
2019-05-22T22:29:53.582Z,69.40
2019-05-22T22:32:29.204Z,69.60
2019-05-22T22:35:02.908Z,69.50
2019-05-22T22:37:36.513Z,69.40
2019-05-22T22:40:12.208Z,69.60
2019-05-22T22:42:47.016Z,69.70
2019-05-22T22:45:23.805Z,69.90
2019-05-22T22:47:58.580Z,69.80
2019-05-22T22:50:32.474Z,70.00
2019-05-22T22:53:06.445Z,70.10
2019-05-22T22:55:40.312Z,70.40
2019-05-22T22:58:17.922Z,70.40
2019-05-22T23:00:53.831Z,70.60
2019-05-22T23:03:28.820Z,70.50
2019-05-22T23:06:03.876Z,70.50
2019-05-22T23:08:37.889Z,70.70
2019-05-22T23:11:12.059Z,71.40
2019-05-22T23:13:46.258Z,71.00
2019-05-22T23:16:21.100Z,71.40
2019-05-22T23:19:06.736Z,71.10
2019-05-22T23:21:40.524Z,71.30
2019-05-22T23:24:14.688Z,71.40
2019-05-22T23:26:49.066Z,71.40
2019-05-22T23:29:23.575Z,71.70
2019-05-22T23:31:57.738Z,71.80
2019-05-22T23:34:32.024Z,72.10
2019-05-22T23:37:07.156Z,72.10
2019-05-22T23:39:40.660Z,71.90
2019-05-22T23:42:17.392Z,72.00
2019-05-22T23:44:54.012Z,72.30
2019-05-22T23:47:27.984Z,72.30
2019-05-22T23:50:01.607Z,72.60
2019-05-22T23:52:35.156Z,72.30
2019-05-22T23:55:10.364Z,72.60
2019-05-22T23:57:43.789Z,72.60
